Pagina principale
METAR-TAF:

METAR-TAF

Aeroporti :

Aeroporto di Alghero-Fertilia

Alghero, Italia

latitudine: 40-38N, longitudine: 008-17E, altezza: 23 m

Osservazione

Il bollettino è stato emesso 26 minuti fa, alle 12:50 UTC
Vento 11 kt da ovest/sud-ovest
Temperature 17°C
Umidità 77%
Pressione 1022 hPa
Visibilità 10 km o più
Poco nuvoloso ad un'altezza di 2000 ft

METAR: LIEA 061250Z 24011KT 9999 FEW020 17/13 Q1022

Ora: 14:16 (13:16 UTC)

Previsione

Il bollettino è stato emesso 2 ore e 16 minuti fa, alle 11:00 UTC
Previsione valida dal 06 alle 12 UTC al 07 alle 12 UTC
Vento 10 kt da sud-ovest
Visibilità 10 km o più
Nubi sparse ad un'altezza di 3000 ft
Temporaneamente
dal 06 alle 18 UTC al 06 alle 21 UTC
pioggia
Evoluzione graduale
dal 07 alle 04 UTC al 07 alle 06 UTC
Vento 8 kt da ovest

TAF: LIEA 061100Z 0612/0712 22010KT 9999 SCT030 TEMPO 0618/0621 RA BECMG 0704/0706 28008KT

Osservazioni e previsioni meteorologiche di più di 4000 aeroporti (messaggi METAR e TAF).

Le stazioni disponibili sono rappresentate dai dischi gialli e rossi sulla carta.

Puntare il mouse per vedere il nome della stazione.

Clicca sopra per visualizzare le osservazioni e previsioni meteorologiche.

Per cambiare la mappa : fare clic sui pulsanti verdi con una croce nera per ingrandire, il pulsante verde con un trattino per diminuire, o sulla freccia verde per le mappe adiacenti.


METAR-TAF: